KN60

Garrison Airport

Garrison, North Dakota, USA
METAR KN60 250452Z AUTO 24003KT 16/11 A2975 RMK AO1 SLP066 T01560111
Observed Flight Rules
May-25 @ 04:52 UTC (39 minutes ago)
Wind
240° at 3 knots
Temperatures Readings
Current 16°C / 61°F
Dewpoint 11°C / 52°F
Humidity 72%
Altimeter 29.75" Hg
Pressure 1006.6 hPa
Elevation 582
METAR KN60 250452Z AUTO 24003KT 16/11 A2975 RMK AO1 SLP066 T01560111
Observed Flight Rules
May-25 @ 04:52 UTC
(39 minutes ago)
Wind
240° at 3 knots
Temperature Dewpoint
16°C / 61°F 11°C / 52°F
Humidity Altimeter Pressure
72% 29.75" Hg 1006.6 hPa